FHY1LK LTAI-LBWN
Flight info
| Callsign | FHY1LK |
|---|---|
| Flight time | 1h 3m |
| Altitude | 34000 |
| Route | EKSEN1F/36R EKSEN UT337 OSVEL UL619 MAKOL T67 IVGOT |
| Aircraft | A320/M-SDE3FGHIRWY/LB1 |
Departure
| Time | 2026-05-08 20:08 |
|---|---|
| Airport | Antalya International Airport (LTAI) |
Arrival
| Time | 2026-05-08 21:12 |
|---|---|
| Airport | Varna Airport (LBWN) |
| Time | Latitude | Longitude | Altitude | Speed | Heading |
|---|---|---|---|---|---|
| 2026-05-08 19:33 | 36.89682 | 30.80139 | 176 ft | 0 kts | 353° |
| 2026-05-08 20:00 | 36.89678 | 30.80140 | 176 ft | 3 kts | 353° |
| 2026-05-08 20:00 | 36.89652 | 30.80143 | 176 ft | 4 kts | 357° |
| 2026-05-08 20:00 | 36.89625 | 30.80141 | 176 ft | 4 kts | 24° |
| 2026-05-08 20:01 | 36.89610 | 30.80123 | 176 ft | 2 kts | 94° |
| 2026-05-08 20:01 | 36.89610 | 30.80120 | 176 ft | 0 kts | 96° |
| 2026-05-08 20:03 | 36.89610 | 30.80121 | 176 ft | 1 kts | 96° |
| 2026-05-08 20:03 | 36.89603 | 30.80199 | 176 ft | 17 kts | 97° |
| 2026-05-08 20:03 | 36.89587 | 30.80362 | 176 ft | 20 kts | 96° |
| 2026-05-08 20:04 | 36.89571 | 30.80539 | 176 ft | 21 kts | 97° |
| 2026-05-08 20:04 | 36.89552 | 30.80658 | 176 ft | 12 kts | 123° |
| 2026-05-08 20:04 | 36.89466 | 30.80673 | 176 ft | 15 kts | 187° |
| 2026-05-08 20:04 | 36.89332 | 30.80655 | 176 ft | 23 kts | 187° |
| 2026-05-08 20:05 | 36.89167 | 30.80632 | 176 ft | 25 kts | 186° |
| 2026-05-08 20:05 | 36.89007 | 30.80611 | 176 ft | 22 kts | 186° |
| 2026-05-08 20:05 | 36.88849 | 30.80589 | 176 ft | 24 kts | 186° |
| 2026-05-08 20:05 | 36.88678 | 30.80566 | 177 ft | 26 kts | 186° |
| 2026-05-08 20:06 | 36.88494 | 30.80541 | 176 ft | 27 kts | 186° |
| 2026-05-08 20:06 | 36.88305 | 30.80514 | 176 ft | 26 kts | 187° |
| 2026-05-08 20:06 | 36.88181 | 30.80499 | 176 ft | 12 kts | 173° |
| 2026-05-08 20:06 | 36.88143 | 30.80580 | 176 ft | 11 kts | 96° |
| 2026-05-08 20:07 | 36.88135 | 30.80672 | 175 ft | 10 kts | 96° |
| 2026-05-08 20:07 | 36.88157 | 30.80733 | 176 ft | 5 kts | 27° |
| 2026-05-08 20:07 | 36.88169 | 30.80735 | 176 ft | 0 kts | 5° |
| 2026-05-08 20:07 | 36.88314 | 30.80753 | 176 ft | 58 kts | 6° |
| 2026-05-08 20:08 | 36.88938 | 30.80838 | 178 ft | 121 kts | 6° |
| 2026-05-08 20:08 | 36.89949 | 30.80979 | 180 ft | 169 kts | 7° |
| 2026-05-08 20:08 | 36.91130 | 30.81158 | 735 ft | 167 kts | 8° |
| 2026-05-08 20:08 | 36.92252 | 30.81563 | 1357 ft | 169 kts | 23° |
| 2026-05-08 20:09 | 36.93348 | 30.82116 | 1959 ft | 172 kts | 22° |
| 2026-05-08 20:09 | 36.94528 | 30.82708 | 2214 ft | 194 kts | 22° |
| 2026-05-08 20:09 | 36.95853 | 30.83378 | 2477 ft | 216 kts | 22° |
| 2026-05-08 20:09 | 36.97344 | 30.83939 | 2906 ft | 235 kts | 3° |
| 2026-05-08 20:10 | 36.99035 | 30.83610 | 3294 ft | 258 kts | 344° |
| 2026-05-08 20:10 | 37.00824 | 30.83131 | 4009 ft | 266 kts | 350° |
| 2026-05-08 20:10 | 37.02671 | 30.82810 | 4888 ft | 269 kts | 352° |
| 2026-05-08 20:10 | 37.04542 | 30.82535 | 5758 ft | 272 kts | 353° |
| 2026-05-08 20:11 | 37.06407 | 30.82261 | 6614 ft | 274 kts | 353° |
| 2026-05-08 20:11 | 37.08303 | 30.81936 | 7415 ft | 277 kts | 348° |
| 2026-05-08 20:11 | 37.10197 | 30.81417 | 8225 ft | 280 kts | 346° |
| 2026-05-08 20:11 | 37.12102 | 30.80840 | 9033 ft | 283 kts | 345° |
| 2026-05-08 20:12 | 37.14023 | 30.80239 | 9842 ft | 286 kts | 345° |
| 2026-05-08 20:12 | 37.15980 | 30.79624 | 10420 ft | 298 kts | 345° |
| 2026-05-08 20:12 | 37.18072 | 30.78967 | 10642 ft | 321 kts | 344° |
| 2026-05-08 20:12 | 37.20319 | 30.78267 | 10813 ft | 345 kts | 345° |
| 2026-05-08 20:13 | 37.22718 | 30.77524 | 11048 ft | 364 kts | 345° |
| 2026-05-08 20:13 | 37.25204 | 30.76760 | 11631 ft | 370 kts | 344° |
| 2026-05-08 20:13 | 37.27723 | 30.75989 | 12321 ft | 374 kts | 344° |
| 2026-05-08 20:13 | 37.30260 | 30.75209 | 13017 ft | 377 kts | 344° |
| 2026-05-08 20:14 | 37.32823 | 30.74422 | 13709 ft | 380 kts | 343° |
| 2026-05-08 20:14 | 37.35403 | 30.73629 | 14334 ft | 383 kts | 343° |
| 2026-05-08 20:14 | 37.37967 | 30.72835 | 14929 ft | 386 kts | 343° |
| 2026-05-08 20:14 | 37.40585 | 30.72025 | 15545 ft | 389 kts | 343° |
| 2026-05-08 20:15 | 37.43226 | 30.71208 | 16127 ft | 392 kts | 343° |
| 2026-05-08 20:15 | 37.45884 | 30.70387 | 16748 ft | 395 kts | 344° |
| 2026-05-08 20:15 | 37.48567 | 30.69559 | 17347 ft | 398 kts | 344° |
| 2026-05-08 20:15 | 37.51269 | 30.68726 | 17957 ft | 401 kts | 344° |
| 2026-05-08 20:16 | 37.54001 | 30.67881 | 18532 ft | 404 kts | 344° |
| 2026-05-08 20:16 | 37.56746 | 30.67030 | 19023 ft | 407 kts | 344° |
| 2026-05-08 20:16 | 37.59505 | 30.66176 | 19543 ft | 409 kts | 344° |
| 2026-05-08 20:16 | 37.62226 | 30.65331 | 20024 ft | 410 kts | 344° |
| 2026-05-08 20:17 | 37.65049 | 30.64454 | 20500 ft | 413 kts | 344° |
| 2026-05-08 20:17 | 37.67811 | 30.63599 | 20968 ft | 414 kts | 344° |
| 2026-05-08 20:17 | 37.70617 | 30.62729 | 21432 ft | 416 kts | 344° |
| 2026-05-08 20:17 | 37.73430 | 30.61854 | 21884 ft | 418 kts | 344° |
| 2026-05-08 20:18 | 37.76258 | 30.60972 | 22339 ft | 419 kts | 344° |
| 2026-05-08 20:18 | 37.79093 | 30.60085 | 22777 ft | 421 kts | 344° |
| 2026-05-08 20:18 | 37.81938 | 30.59195 | 23212 ft | 422 kts | 344° |
| 2026-05-08 20:18 | 37.84790 | 30.58302 | 23640 ft | 424 kts | 344° |
| 2026-05-08 20:19 | 37.87666 | 30.57402 | 24002 ft | 426 kts | 343° |
| 2026-05-08 20:19 | 37.90555 | 30.56497 | 24328 ft | 428 kts | 343° |
| 2026-05-08 20:19 | 37.93452 | 30.55592 | 24647 ft | 430 kts | 343° |
| 2026-05-08 20:19 | 37.96366 | 30.54683 | 24930 ft | 432 kts | 343° |
| 2026-05-08 20:20 | 37.99291 | 30.53769 | 25229 ft | 434 kts | 343° |
| 2026-05-08 20:20 | 38.02231 | 30.52846 | 25524 ft | 436 kts | 343° |
| 2026-05-08 20:20 | 38.05181 | 30.51919 | 25823 ft | 437 kts | 343° |
| 2026-05-08 20:20 | 38.08140 | 30.50989 | 26107 ft | 439 kts | 342° |
| 2026-05-08 20:21 | 38.11115 | 30.50056 | 26387 ft | 441 kts | 342° |
| 2026-05-08 20:21 | 38.14100 | 30.49119 | 26658 ft | 442 kts | 342° |
| 2026-05-08 20:21 | 38.17056 | 30.48188 | 26914 ft | 444 kts | 342° |
| 2026-05-08 20:21 | 38.20058 | 30.47241 | 27158 ft | 446 kts | 342° |
| 2026-05-08 20:22 | 38.23077 | 30.46287 | 27423 ft | 447 kts | 342° |
| 2026-05-08 20:22 | 38.26089 | 30.45335 | 27769 ft | 446 kts | 342° |
| 2026-05-08 20:22 | 38.29093 | 30.44386 | 28111 ft | 445 kts | 342° |
| 2026-05-08 20:22 | 38.31125 | 30.43743 | 28350 ft | 444 kts | 341° |
| 2026-05-08 20:23 | 38.35093 | 30.42487 | 28823 ft | 443 kts | 341° |
| 2026-05-08 20:23 | 38.38083 | 30.41542 | 29164 ft | 442 kts | 341° |
| 2026-05-08 20:23 | 38.41070 | 30.40593 | 29512 ft | 442 kts | 341° |
| 2026-05-08 20:23 | 38.44053 | 30.39642 | 29876 ft | 441 kts | 341° |
| 2026-05-08 20:24 | 38.47025 | 30.38693 | 30255 ft | 441 kts | 341° |
| 2026-05-08 20:24 | 38.49997 | 30.37744 | 30575 ft | 440 kts | 340° |
| 2026-05-08 20:24 | 38.52971 | 30.36796 | 30872 ft | 439 kts | 340° |
| 2026-05-08 20:24 | 38.55895 | 30.35864 | 31162 ft | 438 kts | 340° |
| 2026-05-08 20:25 | 38.58856 | 30.34920 | 31461 ft | 438 kts | 340° |
| 2026-05-08 20:25 | 38.61812 | 30.33976 | 31742 ft | 437 kts | 340° |
| 2026-05-08 20:25 | 38.64763 | 30.33036 | 32058 ft | 436 kts | 340° |
| 2026-05-08 20:25 | 38.67707 | 30.32101 | 32358 ft | 436 kts | 340° |
| 2026-05-08 20:26 | 38.70646 | 30.31160 | 32649 ft | 435 kts | 340° |
| 2026-05-08 20:26 | 38.73581 | 30.30217 | 32944 ft | 435 kts | 340° |
| 2026-05-08 20:26 | 38.76513 | 30.29277 | 33239 ft | 434 kts | 340° |
| 2026-05-08 20:26 | 38.79438 | 30.28341 | 33531 ft | 433 kts | 339° |
| 2026-05-08 20:27 | 38.82366 | 30.27405 | 33829 ft | 433 kts | 339° |
| 2026-05-08 20:27 | 38.85285 | 30.26468 | 34105 ft | 433 kts | 339° |
| 2026-05-08 20:27 | 38.91152 | 30.24577 | 34188 ft | 436 kts | 339° |
| 2026-05-08 20:28 | 38.97047 | 30.22680 | 34183 ft | 437 kts | 339° |
| 2026-05-08 20:28 | 39.02910 | 30.20782 | 34184 ft | 437 kts | 339° |
| 2026-05-08 20:29 | 39.08820 | 30.18864 | 34181 ft | 438 kts | 339° |
| 2026-05-08 20:29 | 39.14735 | 30.16946 | 34178 ft | 438 kts | 339° |
| 2026-05-08 20:30 | 39.20649 | 30.15028 | 34180 ft | 438 kts | 339° |
| 2026-05-08 20:30 | 39.26564 | 30.13113 | 34174 ft | 438 kts | 339° |
| 2026-05-08 20:31 | 39.32481 | 30.11188 | 34173 ft | 438 kts | 339° |
| 2026-05-08 20:31 | 39.38404 | 30.09256 | 34168 ft | 439 kts | 339° |
| 2026-05-08 20:32 | 39.44327 | 30.07320 | 34167 ft | 439 kts | 339° |
| 2026-05-08 20:32 | 39.50256 | 30.05373 | 34166 ft | 440 kts | 339° |
| 2026-05-08 20:33 | 39.56189 | 30.03429 | 34162 ft | 440 kts | 339° |
| 2026-05-08 20:33 | 39.62093 | 30.01489 | 34165 ft | 440 kts | 340° |
| 2026-05-08 20:34 | 39.68036 | 29.99539 | 34167 ft | 441 kts | 340° |
| 2026-05-08 20:35 | 39.76971 | 29.96592 | 34156 ft | 441 kts | 340° |
| 2026-05-08 20:35 | 39.82895 | 29.94625 | 34147 ft | 442 kts | 340° |
| 2026-05-08 20:36 | 39.88873 | 29.92647 | 34149 ft | 443 kts | 340° |
| 2026-05-08 20:36 | 39.94852 | 29.90674 | 34137 ft | 443 kts | 340° |
| 2026-05-08 20:37 | 40.00837 | 29.88680 | 34136 ft | 444 kts | 340° |
| 2026-05-08 20:37 | 40.06794 | 29.86691 | 34133 ft | 444 kts | 340° |
| 2026-05-08 20:38 | 40.12797 | 29.84691 | 34125 ft | 445 kts | 340° |
| 2026-05-08 20:38 | 40.18795 | 29.82688 | 34118 ft | 445 kts | 340° |
| 2026-05-08 20:39 | 40.24768 | 29.80688 | 34115 ft | 445 kts | 340° |
| 2026-05-08 20:39 | 40.30785 | 29.78675 | 34113 ft | 446 kts | 340° |
| 2026-05-08 20:40 | 40.36811 | 29.76651 | 34112 ft | 446 kts | 340° |
| 2026-05-08 20:40 | 40.42838 | 29.74616 | 34113 ft | 447 kts | 340° |
| 2026-05-08 20:41 | 40.48825 | 29.72596 | 34113 ft | 447 kts | 340° |
| 2026-05-08 20:41 | 40.54864 | 29.70557 | 34109 ft | 448 kts | 340° |
| 2026-05-08 20:42 | 40.60680 | 29.68593 | 34102 ft | 448 kts | 341° |
| 2026-05-08 20:42 | 40.66734 | 29.66541 | 34098 ft | 449 kts | 341° |
| 2026-05-08 20:43 | 40.72804 | 29.64478 | 34093 ft | 450 kts | 341° |
| 2026-05-08 20:43 | 40.78837 | 29.62426 | 34094 ft | 451 kts | 341° |
| 2026-05-08 20:44 | 40.84932 | 29.60345 | 34093 ft | 452 kts | 341° |
| 2026-05-08 20:44 | 40.91045 | 29.58252 | 34091 ft | 454 kts | 342° |
| 2026-05-08 20:45 | 40.96141 | 29.56503 | 34090 ft | 455 kts | 342° |
| 2026-05-08 20:45 | 41.02287 | 29.54400 | 34089 ft | 456 kts | 342° |
| 2026-05-08 20:46 | 41.08446 | 29.52289 | 34082 ft | 458 kts | 342° |
| 2026-05-08 20:46 | 41.14628 | 29.50155 | 34089 ft | 459 kts | 342° |
| 2026-05-08 20:47 | 41.20833 | 29.48007 | 34086 ft | 461 kts | 343° |
| 2026-05-08 20:47 | 41.27009 | 29.45881 | 34089 ft | 462 kts | 343° |
| 2026-05-08 20:48 | 41.33281 | 29.43711 | 34087 ft | 463 kts | 343° |
| 2026-05-08 20:48 | 41.39521 | 29.41543 | 34097 ft | 464 kts | 343° |
| 2026-05-08 20:49 | 41.45732 | 29.39381 | 34093 ft | 465 kts | 343° |
| 2026-05-08 20:49 | 41.51994 | 29.37196 | 34100 ft | 465 kts | 344° |
| 2026-05-08 20:50 | 41.58274 | 29.35011 | 34101 ft | 466 kts | 344° |
| 2026-05-08 20:50 | 41.64546 | 29.32824 | 34103 ft | 466 kts | 344° |
| 2026-05-08 20:51 | 41.70824 | 29.30627 | 34108 ft | 466 kts | 344° |
| 2026-05-08 20:51 | 41.77105 | 29.28420 | 34112 ft | 466 kts | 344° |
| 2026-05-08 20:52 | 41.83386 | 29.26210 | 34113 ft | 467 kts | 344° |
| 2026-05-08 20:52 | 41.89627 | 29.24007 | 34117 ft | 467 kts | 344° |
| 2026-05-08 20:53 | 41.95912 | 29.21785 | 34115 ft | 467 kts | 344° |
| 2026-05-08 20:53 | 42.02208 | 29.19561 | 34114 ft | 467 kts | 344° |
| 2026-05-08 20:54 | 42.08495 | 29.17330 | 34107 ft | 467 kts | 344° |
| 2026-05-08 20:54 | 42.14778 | 29.15094 | 33794 ft | 467 kts | 344° |
| 2026-05-08 20:54 | 42.17871 | 29.13735 | 33520 ft | 466 kts | 336° |
| 2026-05-08 20:55 | 42.20807 | 29.11892 | 33025 ft | 466 kts | 333° |
| 2026-05-08 20:55 | 42.23752 | 29.09997 | 31975 ft | 471 kts | 333° |
| 2026-05-08 20:55 | 42.26722 | 29.08091 | 31014 ft | 474 kts | 333° |
| 2026-05-08 20:55 | 42.29718 | 29.06174 | 30020 ft | 477 kts | 333° |
| 2026-05-08 20:56 | 42.32729 | 29.04248 | 28846 ft | 480 kts | 333° |
| 2026-05-08 20:56 | 42.35761 | 29.02308 | 27751 ft | 482 kts | 333° |
| 2026-05-08 20:56 | 42.38750 | 29.00391 | 26608 ft | 483 kts | 333° |
| 2026-05-08 20:56 | 42.41806 | 28.98425 | 25365 ft | 487 kts | 333° |
| 2026-05-08 20:57 | 42.44879 | 28.96446 | 24150 ft | 490 kts | 333° |
| 2026-05-08 20:57 | 42.47957 | 28.94466 | 23002 ft | 490 kts | 333° |
| 2026-05-08 20:57 | 42.51009 | 28.92501 | 22161 ft | 482 kts | 333° |
| 2026-05-08 20:57 | 42.54018 | 28.90555 | 21304 ft | 477 kts | 333° |
| 2026-05-08 20:58 | 42.56998 | 28.88622 | 20480 ft | 473 kts | 333° |
| 2026-05-08 20:58 | 42.59958 | 28.86703 | 19657 ft | 469 kts | 333° |
| 2026-05-08 20:58 | 42.62889 | 28.84803 | 18858 ft | 466 kts | 333° |
| 2026-05-08 20:58 | 42.65806 | 28.82910 | 18020 ft | 463 kts | 333° |
| 2026-05-08 20:59 | 42.68706 | 28.81025 | 17232 ft | 459 kts | 333° |
| 2026-05-08 20:59 | 42.71537 | 28.79183 | 16510 ft | 454 kts | 333° |
| 2026-05-08 20:59 | 42.74378 | 28.77330 | 15791 ft | 450 kts | 333° |
| 2026-05-08 20:59 | 42.77035 | 28.75133 | 14827 ft | 441 kts | 320° |
| 2026-05-08 21:00 | 42.79234 | 28.72299 | 13704 ft | 430 kts | 313° |
| 2026-05-08 21:00 | 42.81311 | 28.69424 | 12464 ft | 423 kts | 313° |
| 2026-05-08 21:00 | 42.83356 | 28.66566 | 11907 ft | 417 kts | 313° |
| 2026-05-08 21:00 | 42.85359 | 28.63763 | 11402 ft | 410 kts | 313° |
| 2026-05-08 21:01 | 42.87312 | 28.61044 | 11266 ft | 392 kts | 313° |
| 2026-05-08 21:01 | 42.89182 | 28.58446 | 11142 ft | 376 kts | 313° |
| 2026-05-08 21:01 | 42.90979 | 28.55946 | 11022 ft | 361 kts | 313° |
| 2026-05-08 21:01 | 42.92701 | 28.53539 | 10895 ft | 347 kts | 313° |
| 2026-05-08 21:02 | 42.94357 | 28.51221 | 10781 ft | 333 kts | 313° |
| 2026-05-08 21:02 | 42.95921 | 28.49031 | 10534 ft | 314 kts | 312° |
| 2026-05-08 21:02 | 42.97429 | 28.46915 | 10090 ft | 309 kts | 312° |
| 2026-05-08 21:02 | 42.98909 | 28.44831 | 9890 ft | 304 kts | 312° |
| 2026-05-08 21:03 | 43.00381 | 28.42754 | 9760 ft | 304 kts | 312° |
| 2026-05-08 21:03 | 43.01849 | 28.40679 | 9628 ft | 303 kts | 312° |
| 2026-05-08 21:03 | 43.03313 | 28.38606 | 9320 ft | 304 kts | 312° |
| 2026-05-08 21:03 | 43.04762 | 28.36558 | 8889 ft | 303 kts | 312° |
| 2026-05-08 21:04 | 43.06225 | 28.34492 | 8458 ft | 302 kts | 312° |
| 2026-05-08 21:04 | 43.07674 | 28.32450 | 8009 ft | 297 kts | 312° |
| 2026-05-08 21:04 | 43.09110 | 28.30427 | 7498 ft | 294 kts | 311° |
| 2026-05-08 21:04 | 43.10521 | 28.28439 | 7014 ft | 289 kts | 311° |
| 2026-05-08 21:05 | 43.11914 | 28.26473 | 6560 ft | 289 kts | 311° |
| 2026-05-08 21:05 | 43.13280 | 28.24543 | 6086 ft | 285 kts | 311° |
| 2026-05-08 21:05 | 43.14647 | 28.22605 | 5643 ft | 281 kts | 311° |
| 2026-05-08 21:05 | 43.16000 | 28.20682 | 5213 ft | 280 kts | 311° |
| 2026-05-08 21:06 | 43.17334 | 28.18789 | 4899 ft | 268 kts | 311° |
| 2026-05-08 21:06 | 43.18578 | 28.17028 | 4815 ft | 246 kts | 311° |
| 2026-05-08 21:06 | 43.19662 | 28.15343 | 4763 ft | 225 kts | 300° |
| 2026-05-08 21:06 | 43.20338 | 28.13447 | 4629 ft | 222 kts | 284° |
| 2026-05-08 21:07 | 43.20628 | 28.11331 | 4027 ft | 230 kts | 273° |
| 2026-05-08 21:07 | 43.20815 | 28.09189 | 3743 ft | 221 kts | 274° |
| 2026-05-08 21:07 | 43.20996 | 28.07178 | 3598 ft | 204 kts | 274° |
| 2026-05-08 21:07 | 43.21168 | 28.05294 | 3525 ft | 192 kts | 273° |
| 2026-05-08 21:08 | 43.21326 | 28.03545 | 3240 ft | 181 kts | 273° |
| 2026-05-08 21:08 | 43.21471 | 28.01916 | 3010 ft | 163 kts | 272° |
| 2026-05-08 21:08 | 43.21603 | 28.00439 | 2796 ft | 151 kts | 272° |
| 2026-05-08 21:08 | 43.21726 | 27.99040 | 2600 ft | 145 kts | 272° |
| 2026-05-08 21:09 | 43.21847 | 27.97683 | 2407 ft | 142 kts | 272° |
| 2026-05-08 21:09 | 43.21965 | 27.96348 | 2220 ft | 140 kts | 272° |
| 2026-05-08 21:09 | 43.22081 | 27.95029 | 2035 ft | 139 kts | 272° |
| 2026-05-08 21:09 | 43.22195 | 27.93718 | 1848 ft | 138 kts | 272° |
| 2026-05-08 21:10 | 43.22311 | 27.92414 | 1647 ft | 138 kts | 272° |
| 2026-05-08 21:10 | 43.22429 | 27.91106 | 1416 ft | 139 kts | 274° |
| 2026-05-08 21:10 | 43.22554 | 27.89782 | 1203 ft | 141 kts | 274° |
| 2026-05-08 21:10 | 43.22662 | 27.88441 | 968 ft | 142 kts | 276° |
| 2026-05-08 21:11 | 43.22790 | 27.87092 | 680 ft | 142 kts | 276° |
| 2026-05-08 21:11 | 43.22908 | 27.85749 | 497 ft | 142 kts | 277° |
| 2026-05-08 21:11 | 43.23027 | 27.84411 | 372 ft | 142 kts | 277° |
| 2026-05-08 21:11 | 43.23143 | 27.83092 | 273 ft | 128 kts | 277° |
| 2026-05-08 21:12 | 43.23217 | 27.82286 | 273 ft | 53 kts | 277° |
| 2026-05-08 21:12 | 43.23261 | 27.81817 | 273 ft | 47 kts | 276° |
| 2026-05-08 21:12 | 43.23297 | 27.81402 | 270 ft | 36 kts | 277° |
| 2026-05-08 21:12 | 43.23316 | 27.81172 | 271 ft | 15 kts | 276° |
| 2026-05-08 21:13 | 43.23356 | 27.81027 | 270 ft | 19 kts | 306° |
| 2026-05-08 21:13 | 43.23465 | 27.80927 | 260 ft | 16 kts | 338° |
| 2026-05-08 21:13 | 43.23560 | 27.80964 | 259 ft | 17 kts | 47° |
| 2026-05-08 21:13 | 43.23571 | 27.81131 | 259 ft | 20 kts | 97° |
| 2026-05-08 21:14 | 43.23553 | 27.81337 | 259 ft | 23 kts | 96° |
| 2026-05-08 21:14 | 43.23536 | 27.81531 | 259 ft | 22 kts | 97° |
| 2026-05-08 21:14 | 43.23516 | 27.81749 | 259 ft | 23 kts | 97° |
| 2026-05-08 21:14 | 43.23496 | 27.81971 | 259 ft | 24 kts | 97° |
| 2026-05-08 21:15 | 43.23479 | 27.82205 | 259 ft | 23 kts | 91° |
| 2026-05-08 21:15 | 43.23474 | 27.82376 | 259 ft | 10 kts | 96° |
| 2026-05-08 21:15 | 43.23464 | 27.82478 | 259 ft | 12 kts | 98° |
| 2026-05-08 21:15 | 43.23453 | 27.82612 | 259 ft | 16 kts | 95° |
| 2026-05-08 21:16 | 43.23442 | 27.82743 | 259 ft | 13 kts | 98° |
| 2026-05-08 21:16 | 43.23432 | 27.82843 | 259 ft | 8 kts | 96° |
| 2026-05-08 21:16 | 43.23472 | 27.82880 | 259 ft | 5 kts | 6° |
| 2026-05-08 21:16 | 43.23494 | 27.82884 | 259 ft | 2 kts | 6° |
| 2026-05-08 21:17 | 43.23499 | 27.82884 | 259 ft | 0 kts | 6° |